createdAt,value
2019-04-06T00:00:25.719Z,106.95
2019-04-06T00:01:18.356Z,107.90
2019-04-06T00:01:54.450Z,98.58
2019-04-06T00:02:33.057Z,99.77
2019-04-06T00:03:06.624Z,105.27
2019-04-06T00:03:40.148Z,105.40
2019-04-06T00:04:13.566Z,100.95
2019-04-06T00:04:47.064Z,107.22
2019-04-06T00:05:20.558Z,109.87
2019-04-06T00:05:54.102Z,106.55
2019-04-06T00:06:27.618Z,110.45
2019-04-06T00:07:01.109Z,108.32
2019-04-06T00:07:34.589Z,99.75
2019-04-06T00:08:08.079Z,110.05
2019-04-06T00:08:41.554Z,99.47
2019-04-06T00:09:15.066Z,102.50
2019-04-06T00:09:48.568Z,102.65
2019-04-06T00:10:22.044Z,99.15
2019-04-06T00:10:55.531Z,97.45
2019-04-06T00:11:29.011Z,96.90
2019-04-06T00:12:02.720Z,96.53
2019-04-06T00:12:36.193Z,110.40
2019-04-06T00:13:09.603Z,96.87
2019-04-06T00:13:43.084Z,104.15
2019-04-06T00:14:16.582Z,103.60
2019-04-06T00:14:50.070Z,101.18
2019-04-06T00:15:23.554Z,103.47
2019-04-06T00:15:57.037Z,102.00
2019-04-06T00:16:30.518Z,96.80
2019-04-06T00:17:04.021Z,102.72
2019-04-06T00:17:37.554Z,95.05
2019-04-06T00:18:11.059Z,100.25
2019-04-06T00:18:44.546Z,93.15
2019-04-06T00:19:18.769Z,111.35
2019-04-06T00:19:52.246Z,100.18
2019-04-06T00:20:25.716Z,90.12
2019-04-06T00:20:59.205Z,101.07
2019-04-06T00:21:32.684Z,101.45
2019-04-06T00:22:06.173Z,102.95
2019-04-06T00:22:39.850Z,100.42
2019-04-06T00:23:13.338Z,99.03
2019-04-06T00:23:46.910Z,103.30
2019-04-06T00:24:20.407Z,97.65
2019-04-06T00:24:53.809Z,99.17
2019-04-06T00:25:27.303Z,102.95
2019-04-06T00:26:00.892Z,99.58
2019-04-06T00:26:34.309Z,98.87
2019-04-06T00:27:07.801Z,94.75
2019-04-06T00:27:41.358Z,102.20
2019-04-06T00:28:14.852Z,99.60
2019-04-06T00:28:48.458Z,99.67
2019-04-06T00:29:22.371Z,107.17
2019-04-06T00:29:55.857Z,95.72
2019-04-06T00:30:31.957Z,91.57
2019-04-06T00:31:11.741Z,96.17
2019-04-06T00:32:10.668Z,95.22
2019-04-06T00:33:05.887Z,88.42
2019-04-06T00:33:39.364Z,94.15
2019-04-06T00:34:12.861Z,99.37
2019-04-06T00:34:46.351Z,100.87
2019-04-06T00:35:19.861Z,99.40
2019-04-06T00:35:53.359Z,97.72
2019-04-06T00:36:26.849Z,99.95
2019-04-06T00:37:00.278Z,94.90
2019-04-06T00:37:33.765Z,95.83
2019-04-06T00:38:07.262Z,99.45
2019-04-06T00:38:40.781Z,96.70
2019-04-06T00:39:14.542Z,93.70
2019-04-06T00:39:48.090Z,97.88
2019-04-06T00:40:21.506Z,97.45
2019-04-06T00:40:55.012Z,95.57
2019-04-06T00:41:28.437Z,91.20
2019-04-06T00:42:02.115Z,100.35
2019-04-06T00:42:35.598Z,102.58
2019-04-06T00:43:09.111Z,96.75
2019-04-06T00:43:42.595Z,102.55
2019-04-06T00:44:16.942Z,102.67
2019-04-06T00:44:50.457Z,95.72
2019-04-06T00:45:23.946Z,106.65
2019-04-06T00:45:57.429Z,99.67
2019-04-06T00:46:30.902Z,108.15
2019-04-06T00:47:04.390Z,101.40
2019-04-06T00:47:37.873Z,104.55
2019-04-06T00:48:11.293Z,103.85
2019-04-06T00:48:44.783Z,108.25
2019-04-06T00:49:19.134Z,93.00
2019-04-06T00:49:52.669Z,100.53
2019-04-06T00:50:27.098Z,95.65
2019-04-06T00:51:00.581Z,100.90
2019-04-06T00:51:33.982Z,102.07
2019-04-06T00:52:07.383Z,98.33
2019-04-06T00:52:41.017Z,106.37
2019-04-06T00:53:14.511Z,103.53
2019-04-06T00:53:47.922Z,94.62
2019-04-06T00:54:22.039Z,97.75
2019-04-06T00:54:55.526Z,97.02
2019-04-06T00:55:29.010Z,100.72
2019-04-06T00:56:02.863Z,99.42
2019-04-06T00:56:36.675Z,106.63
2019-04-06T00:57:10.153Z,99.67
2019-04-06T00:57:43.596Z,108.50
2019-04-06T00:58:17.121Z,101.85
2019-04-06T00:58:50.622Z,102.12
2019-04-06T00:59:24.117Z,102.75
2019-04-06T00:59:57.595Z,100.58
2019-04-06T01:00:31.093Z,105.65
2019-04-06T01:01:04.590Z,97.20
2019-04-06T01:01:38.273Z,110.22
2019-04-06T01:02:11.841Z,103.05
2019-04-06T01:02:45.310Z,99.55
2019-04-06T01:03:18.789Z,105.35
2019-04-06T01:03:52.350Z,101.15
2019-04-06T01:04:25.911Z,97.33
2019-04-06T01:04:59.334Z,97.88
2019-04-06T01:05:32.827Z,95.22
2019-04-06T01:06:06.298Z,97.35
2019-04-06T01:06:39.717Z,94.35
2019-04-06T01:07:13.194Z,95.30
2019-04-06T01:07:46.680Z,94.58
2019-04-06T01:08:20.229Z,93.25
2019-04-06T01:08:53.757Z,100.42
2019-04-06T01:09:27.254Z,111.15
2019-04-06T01:10:01.753Z,102.02
2019-04-06T01:10:35.242Z,105.20
2019-04-06T01:11:08.722Z,97.33
2019-04-06T01:11:42.225Z,103.07
2019-04-06T01:12:15.799Z,101.33
2019-04-06T01:12:49.568Z,98.95
2019-04-06T01:13:23.126Z,106.00
2019-04-06T01:13:56.609Z,98.10
2019-04-06T01:14:30.095Z,101.40
2019-04-06T01:15:03.837Z,92.02
2019-04-06T01:15:37.319Z,93.95
2019-04-06T01:16:10.808Z,96.60
2019-04-06T01:16:44.294Z,103.90
2019-04-06T01:17:17.782Z,103.00
2019-04-06T01:17:51.278Z,100.50
2019-04-06T01:18:25.089Z,103.27
2019-04-06T01:18:58.575Z,108.22
2019-04-06T01:19:31.978Z,95.55
2019-04-06T01:20:06.174Z,100.85
2019-04-06T01:20:39.660Z,101.10
2019-04-06T01:21:13.141Z,100.70
2019-04-06T01:21:46.811Z,92.25
2019-04-06T01:22:20.298Z,105.60
2019-04-06T01:22:53.853Z,93.35
2019-04-06T01:23:27.438Z,100.10
2019-04-06T01:24:00.911Z,98.42
2019-04-06T01:24:34.481Z,104.03
2019-04-06T01:25:09.583Z,91.65
2019-04-06T01:25:43.080Z,96.37
2019-04-06T01:26:16.583Z,99.70
2019-04-06T01:26:50.054Z,102.95
2019-04-06T01:27:23.613Z,99.52
2019-04-06T01:27:57.390Z,108.07
2019-04-06T01:28:31.085Z,97.57
2019-04-06T01:29:04.569Z,102.50
2019-04-06T01:29:37.979Z,105.47
2019-04-06T01:30:12.164Z,96.82
2019-04-06T01:30:45.641Z,100.38
2019-04-06T01:31:19.115Z,98.30
2019-04-06T01:31:52.624Z,95.72
2019-04-06T01:32:26.166Z,98.27
2019-04-06T01:32:59.655Z,106.95
2019-04-06T01:33:33.147Z,100.62
2019-04-06T01:34:06.547Z,90.15
2019-04-06T01:34:40.034Z,94.90
2019-04-06T01:35:14.572Z,102.80
2019-04-06T01:35:48.070Z,100.38
2019-04-06T01:36:21.486Z,91.53
2019-04-06T01:36:55.065Z,99.17
2019-04-06T01:37:28.555Z,108.42
2019-04-06T01:38:02.056Z,105.40
2019-04-06T01:38:35.535Z,104.87
2019-04-06T01:39:09.020Z,105.85
2019-04-06T01:39:42.507Z,105.12
2019-04-06T01:40:16.763Z,106.97
2019-04-06T01:40:50.259Z,106.50
2019-04-06T01:41:23.732Z,93.33
2019-04-06T01:41:57.223Z,102.67
2019-04-06T01:42:30.702Z,101.85
2019-04-06T01:43:04.185Z,97.78
2019-04-06T01:43:37.586Z,93.58
2019-04-06T01:44:11.153Z,99.80
2019-04-06T01:44:44.657Z,102.27
2019-04-06T01:45:18.159Z,105.37
2019-04-06T01:45:51.634Z,94.80
2019-04-06T01:46:25.262Z,92.62
2019-04-06T01:46:58.757Z,96.05
2019-04-06T01:47:32.290Z,98.60
2019-04-06T01:48:05.793Z,90.07
2019-04-06T01:48:39.270Z,94.17
2019-04-06T01:49:12.868Z,98.33
2019-04-06T01:49:46.406Z,99.17
2019-04-06T01:50:20.097Z,101.00
2019-04-06T01:50:53.568Z,90.53
2019-04-06T01:51:26.974Z,94.47
2019-04-06T01:52:00.461Z,92.20
2019-04-06T01:52:33.958Z,89.00
2019-04-06T01:53:07.516Z,100.75
2019-04-06T01:53:41.114Z,103.60
2019-04-06T01:54:14.777Z,95.15
2019-04-06T01:54:48.203Z,90.20
2019-04-06T01:55:21.713Z,93.00
2019-04-06T01:55:55.194Z,101.42
2019-04-06T01:56:28.673Z,98.70
2019-04-06T01:57:02.218Z,97.72
2019-04-06T01:57:35.676Z,91.53
2019-04-06T01:58:09.084Z,93.92
2019-04-06T01:58:42.554Z,90.30
2019-04-06T01:59:16.033Z,94.30
2019-04-06T01:59:49.514Z,89.60
2019-04-06T02:00:23.665Z,87.82
2019-04-06T02:01:16.304Z,92.02
2019-04-06T02:02:04.500Z,88.25
2019-04-06T02:02:39.863Z,81.65
2019-04-06T02:03:13.352Z,94.05
2019-04-06T02:03:46.881Z,92.92
2019-04-06T02:04:20.410Z,85.30
2019-04-06T02:04:53.913Z,94.72
2019-04-06T02:05:27.498Z,92.37
2019-04-06T02:06:00.985Z,88.03
2019-04-06T02:06:34.542Z,83.47
2019-04-06T02:07:08.016Z,92.25
2019-04-06T02:07:41.697Z,89.90
2019-04-06T02:08:15.176Z,84.62
2019-04-06T02:08:48.675Z,86.17
2019-04-06T02:09:22.157Z,88.52
2019-04-06T02:09:55.639Z,89.97
2019-04-06T02:10:29.142Z,100.97
2019-04-06T02:11:02.651Z,85.50
2019-04-06T02:11:36.166Z,86.57
2019-04-06T02:12:09.788Z,87.88
2019-04-06T02:12:43.276Z,92.60
2019-04-06T02:13:16.840Z,87.62
2019-04-06T02:13:50.353Z,81.32
2019-04-06T02:14:23.906Z,82.72
2019-04-06T02:14:57.476Z,90.07
2019-04-06T02:15:31.027Z,87.47
2019-04-06T02:16:04.827Z,78.40
2019-04-06T02:16:38.316Z,78.55
2019-04-06T02:17:11.811Z,83.07
2019-04-06T02:17:45.291Z,88.00
2019-04-06T02:18:18.781Z,84.50
2019-04-06T02:18:52.293Z,82.27
2019-04-06T02:19:25.811Z,77.65
2019-04-06T02:19:59.409Z,85.90
2019-04-06T02:20:32.959Z,87.97
2019-04-06T02:21:07.252Z,91.95
2019-04-06T02:21:40.658Z,81.42
2019-04-06T02:22:14.133Z,89.35
2019-04-06T02:22:47.614Z,80.85
2019-04-06T02:23:21.186Z,82.22
2019-04-06T02:23:54.851Z,83.07
2019-04-06T02:24:28.320Z,86.53
2019-04-06T02:25:01.823Z,83.97
2019-04-06T02:25:35.449Z,81.87
2019-04-06T02:26:09.343Z,83.62
2019-04-06T02:26:42.923Z,81.42
2019-04-06T02:27:16.477Z,82.80
2019-04-06T02:27:49.981Z,86.08
2019-04-06T02:28:23.453Z,74.67
2019-04-06T02:28:56.970Z,83.17
2019-04-06T02:29:30.387Z,80.35
2019-04-06T02:30:26.241Z,82.60
2019-04-06T02:31:15.356Z,72.17
2019-04-06T02:32:08.054Z,79.67
2019-04-06T02:32:53.950Z,78.50
2019-04-06T02:33:49.349Z,74.65
2019-04-06T02:34:37.769Z,73.22
2019-04-06T02:35:34.990Z,74.75
2019-04-06T02:36:23.044Z,73.20
2019-04-06T02:37:24.762Z,80.40
2019-04-06T02:38:17.561Z,73.87
2019-04-06T02:39:10.416Z,75.05
2019-04-06T02:39:54.450Z,79.47
2019-04-06T02:40:52.833Z,77.55
2019-04-06T02:41:45.184Z,73.05
2019-04-06T02:42:22.383Z,77.55
2019-04-06T02:43:03.175Z,82.42
2019-04-06T02:43:36.767Z,78.42
2019-04-06T02:44:10.338Z,79.58
2019-04-06T02:44:43.846Z,87.20
2019-04-06T02:45:17.319Z,82.57
2019-04-06T02:45:50.945Z,75.22
2019-04-06T02:46:25.153Z,80.45
2019-04-06T02:46:58.668Z,80.92
2019-04-06T02:47:32.135Z,76.47
2019-04-06T02:48:05.643Z,76.02
2019-04-06T02:48:39.299Z,85.35
2019-04-06T02:49:12.903Z,77.32
2019-04-06T02:49:46.389Z,81.28
2019-04-06T02:50:19.874Z,93.70
2019-04-06T02:50:53.379Z,86.32
2019-04-06T02:51:26.855Z,75.78
2019-04-06T02:52:00.443Z,78.40
2019-04-06T02:52:34.917Z,71.82
2019-04-06T02:53:08.540Z,75.90
2019-04-06T02:53:42.143Z,80.12
2019-04-06T02:54:15.612Z,79.60
2019-04-06T02:54:49.177Z,86.17
2019-04-06T02:55:22.583Z,79.30
2019-04-06T02:55:56.064Z,75.45
2019-04-06T02:56:44.286Z,79.10
2019-04-06T02:57:04.777Z,83.40
2019-04-06T02:57:38.198Z,84.22
2019-04-06T02:58:11.841Z,77.85
2019-04-06T02:58:45.392Z,80.10
2019-04-06T02:59:18.981Z,80.12
2019-04-06T02:59:52.739Z,76.53
2019-04-06T03:00:26.231Z,69.10
2019-04-06T03:00:59.750Z,77.90
2019-04-06T03:01:33.333Z,77.95
2019-04-06T03:02:07.874Z,80.77
2019-04-06T03:02:41.367Z,76.12
2019-04-06T03:03:14.917Z,83.67
2019-04-06T03:03:48.844Z,78.75
2019-04-06T03:04:22.656Z,80.47
2019-04-06T03:04:56.134Z,74.77
2019-04-06T03:05:29.657Z,78.17
2019-04-06T03:06:03.159Z,72.72
2019-04-06T03:06:36.813Z,79.07
2019-04-06T03:07:10.473Z,80.57
2019-04-06T03:07:43.958Z,74.10
2019-04-06T03:08:17.463Z,80.28
2019-04-06T03:08:50.946Z,81.82
2019-04-06T03:09:24.426Z,77.55
2019-04-06T03:09:57.967Z,75.42
2019-04-06T03:10:31.445Z,78.02
2019-04-06T03:11:04.938Z,79.15
2019-04-06T03:11:38.611Z,77.10
2019-04-06T03:12:12.262Z,80.92
2019-04-06T03:12:45.753Z,66.95
2019-04-06T03:13:19.243Z,82.05
2019-04-06T03:13:52.656Z,75.92
2019-04-06T03:14:26.180Z,72.10
2019-04-06T03:14:59.712Z,77.32
2019-04-06T03:15:33.248Z,74.55
2019-04-06T03:16:06.748Z,73.67
2019-04-06T03:16:40.478Z,75.35
2019-04-06T03:17:14.603Z,79.22
2019-04-06T03:17:48.086Z,72.70
2019-04-06T03:18:21.566Z,77.82
2019-04-06T03:18:55.062Z,69.75
2019-04-06T03:19:28.615Z,74.10
2019-04-06T03:20:02.111Z,75.70
2019-04-06T03:20:35.585Z,75.20
2019-04-06T03:21:09.062Z,75.92
2019-04-06T03:21:42.575Z,76.35
2019-04-06T03:22:16.008Z,70.92
2019-04-06T03:22:49.643Z,75.50
2019-04-06T03:23:24.968Z,69.55
2019-04-06T03:23:58.567Z,75.65
2019-04-06T03:24:32.048Z,66.87
2019-04-06T03:25:05.967Z,78.72
2019-04-06T03:25:39.516Z,69.65
2019-04-06T03:26:12.996Z,69.92
2019-04-06T03:26:59.918Z,77.37
2019-04-06T03:27:21.891Z,69.82
2019-04-06T03:27:55.623Z,74.37
2019-04-06T03:28:29.115Z,75.90
2019-04-06T03:29:02.704Z,76.77
2019-04-06T03:29:36.211Z,75.25
2019-04-06T03:30:09.766Z,83.67
2019-04-06T03:30:43.328Z,72.00
2019-04-06T03:31:22.377Z,77.12
2019-04-06T03:31:52.144Z,75.45
2019-04-06T03:32:25.945Z,81.72
2019-04-06T03:32:59.919Z,74.32
2019-04-06T03:33:33.425Z,70.60
2019-04-06T03:34:06.900Z,76.28
2019-04-06T03:34:40.371Z,78.10
2019-04-06T03:35:13.841Z,75.32
2019-04-06T03:35:49.456Z,77.50
2019-04-06T03:36:22.570Z,76.55
2019-04-06T03:36:56.117Z,77.90
2019-04-06T03:37:29.840Z,79.27
2019-04-06T03:38:03.331Z,74.97
2019-04-06T03:38:36.817Z,67.20
2019-04-06T03:39:10.426Z,74.55
2019-04-06T03:39:43.934Z,75.25
2019-04-06T03:40:17.429Z,82.12
2019-04-06T03:40:51.003Z,74.40
2019-04-06T03:41:24.498Z,73.50
2019-04-06T03:41:57.906Z,66.42
2019-04-06T03:42:31.386Z,82.55
2019-04-06T03:43:04.940Z,78.50
2019-04-06T03:43:38.424Z,75.50
2019-04-06T03:44:13.706Z,78.95
2019-04-06T03:44:47.400Z,71.92
2019-04-06T03:45:21.033Z,75.97
2019-04-06T03:45:54.526Z,76.10
2019-04-06T03:46:28.013Z,70.40
2019-04-06T03:47:01.510Z,73.70
2019-04-06T03:47:35.168Z,78.40
2019-04-06T03:48:08.769Z,78.25
2019-04-06T03:48:42.289Z,69.12
2019-04-06T03:49:15.839Z,64.55
2019-04-06T03:49:49.327Z,80.20
2019-04-06T03:50:22.824Z,70.17
2019-04-06T03:50:56.429Z,73.87
2019-04-06T03:51:30.167Z,67.22
2019-04-06T03:52:03.653Z,81.75
2019-04-06T03:52:37.171Z,68.17
2019-04-06T03:53:10.744Z,66.00
2019-04-06T03:53:44.450Z,68.25
2019-04-06T03:54:18.024Z,70.57
2019-04-06T03:54:51.525Z,73.78
2019-04-06T03:55:25.074Z,70.75
2019-04-06T03:55:58.568Z,65.90
2019-04-06T03:56:32.054Z,70.83
2019-04-06T03:57:14.825Z,73.85
2019-04-06T03:57:40.786Z,77.17
2019-04-06T03:58:15.085Z,74.32
2019-04-06T03:58:48.566Z,68.02
2019-04-06T03:59:22.066Z,76.87
2019-04-06T03:59:55.549Z,77.87
2019-04-06T04:00:29.149Z,74.60
2019-04-06T04:01:02.709Z,76.17
2019-04-06T04:01:36.185Z,72.20
2019-04-06T04:02:09.674Z,67.47
2019-04-06T04:02:43.167Z,67.35
2019-04-06T04:03:17.397Z,61.20
2019-04-06T04:03:50.870Z,62.00
2019-04-06T04:04:24.366Z,70.72
2019-04-06T04:04:57.857Z,68.42
2019-04-06T04:05:31.338Z,68.72
2019-04-06T04:06:04.886Z,69.95
2019-04-06T04:06:38.622Z,64.05
2019-04-06T04:07:12.179Z,64.15
2019-04-06T04:07:45.649Z,67.58
2019-04-06T04:08:19.162Z,74.35
2019-04-06T04:08:52.645Z,66.20
2019-04-06T04:09:26.194Z,61.98
2019-04-06T04:09:59.713Z,61.37
2019-04-06T04:10:34.913Z,70.70
2019-04-06T04:11:08.336Z,62.48
2019-04-06T04:11:41.846Z,69.37
2019-04-06T04:12:15.343Z,61.25
2019-04-06T04:12:48.820Z,68.12
2019-04-06T04:13:23.392Z,67.45
2019-04-06T04:13:56.966Z,60.20
2019-04-06T04:14:30.456Z,70.83
2019-04-06T04:15:04.141Z,64.42
2019-04-06T04:15:37.725Z,62.30
2019-04-06T04:16:11.255Z,61.95
2019-04-06T04:16:44.675Z,75.92
2019-04-06T04:17:18.287Z,68.47
2019-04-06T04:17:51.862Z,66.70
2019-04-06T04:18:26.306Z,65.20
2019-04-06T04:18:59.727Z,58.33
2019-04-06T04:19:33.282Z,64.47
2019-04-06T04:20:06.759Z,62.98
2019-04-06T04:20:40.278Z,67.12
2019-04-06T04:21:13.912Z,68.47
2019-04-06T04:21:47.528Z,62.43
2019-04-06T04:22:21.073Z,60.73
2019-04-06T04:22:54.567Z,64.70
2019-04-06T04:23:28.266Z,65.20
2019-04-06T04:24:01.908Z,63.63
2019-04-06T04:24:35.433Z,60.35
2019-04-06T04:25:09.310Z,64.92
2019-04-06T04:25:42.967Z,63.40
2019-04-06T04:26:16.472Z,65.47
2019-04-06T04:26:50.050Z,68.90
2019-04-06T04:27:29.874Z,57.60
2019-04-06T04:27:59.356Z,63.95
2019-04-06T04:28:33.252Z,66.20
2019-04-06T04:29:06.947Z,59.63
2019-04-06T04:29:40.514Z,54.73
2019-04-06T04:30:15.384Z,60.05
2019-04-06T04:30:49.229Z,63.95
2019-04-06T04:31:22.906Z,66.67
2019-04-06T04:31:56.494Z,60.45
2019-04-06T04:32:30.010Z,58.60
2019-04-06T04:33:03.641Z,54.83
2019-04-06T04:33:37.258Z,65.42
2019-04-06T04:34:10.773Z,62.95
2019-04-06T04:34:44.257Z,61.90
2019-04-06T04:35:18.578Z,60.85
2019-04-06T04:35:52.633Z,61.80
2019-04-06T04:36:26.124Z,53.33
2019-04-06T04:36:59.784Z,58.75
2019-04-06T04:37:33.368Z,58.45
2019-04-06T04:38:06.838Z,59.38
2019-04-06T04:38:40.432Z,55.58
2019-04-06T04:39:14.184Z,53.73
2019-04-06T04:39:47.981Z,50.43
2019-04-06T04:40:21.737Z,54.33
2019-04-06T04:40:55.499Z,62.23
2019-04-06T04:41:29.263Z,54.25
2019-04-06T04:42:02.742Z,57.43
2019-04-06T04:42:36.234Z,52.93
2019-04-06T04:43:09.719Z,60.08
2019-04-06T04:43:43.213Z,58.78
2019-04-06T04:44:16.691Z,49.50
2019-04-06T04:44:50.179Z,53.20
2019-04-06T04:45:23.661Z,45.40
2019-04-06T04:45:57.127Z,49.58
2019-04-06T04:46:30.613Z,50.30
2019-04-06T04:47:04.115Z,52.08
2019-04-06T04:47:37.606Z,51.45
2019-04-06T04:48:11.119Z,45.33
2019-04-06T04:48:45.349Z,54.27
2019-04-06T04:49:18.858Z,47.67
2019-04-06T04:49:52.473Z,50.45
2019-04-06T04:50:26.057Z,45.92
2019-04-06T04:50:59.539Z,55.12
2019-04-06T04:51:33.089Z,49.93
2019-04-06T04:52:06.919Z,53.75
2019-04-06T04:52:40.421Z,48.28
2019-04-06T04:53:14.067Z,49.03
2019-04-06T04:53:48.064Z,48.80
2019-04-06T04:54:21.566Z,46.55
2019-04-06T04:54:55.058Z,48.98
2019-04-06T04:55:28.559Z,47.90
2019-04-06T04:56:02.182Z,51.15
2019-04-06T04:56:35.815Z,46.98
2019-04-06T04:57:09.293Z,45.15
2019-04-06T04:57:45.084Z,49.00
2019-04-06T04:58:18.015Z,46.85
2019-04-06T04:58:51.774Z,41.30
2019-04-06T04:59:25.418Z,47.20
2019-04-06T04:59:59.158Z,43.35
2019-04-06T05:00:32.631Z,50.63
2019-04-06T05:01:06.898Z,47.55
2019-04-06T05:01:40.427Z,44.67
2019-04-06T05:02:13.925Z,45.15
2019-04-06T05:02:47.412Z,46.40
2019-04-06T05:03:21.116Z,46.25
2019-04-06T05:03:54.676Z,45.33
2019-04-06T05:04:28.158Z,46.30
2019-04-06T05:05:01.747Z,51.13
2019-04-06T05:05:36.045Z,46.13
2019-04-06T05:06:09.462Z,44.70
2019-04-06T05:06:42.945Z,48.13
2019-04-06T05:07:16.446Z,48.20
2019-04-06T05:07:49.907Z,43.30
2019-04-06T05:08:23.385Z,46.28
2019-04-06T05:08:57.015Z,46.75
2019-04-06T05:09:30.570Z,42.95
2019-04-06T05:10:04.594Z,41.73
2019-04-06T05:10:38.089Z,41.15
2019-04-06T05:11:11.502Z,45.48
2019-04-06T05:11:45.049Z,44.30
2019-04-06T05:12:18.637Z,44.18
2019-04-06T05:12:52.202Z,44.60
2019-04-06T05:13:25.888Z,47.05
2019-04-06T05:14:17.259Z,44.88
2019-04-06T05:14:56.567Z,43.55
2019-04-06T05:15:47.490Z,42.17
2019-04-06T05:16:20.982Z,46.15
2019-04-06T05:16:54.462Z,41.95
2019-04-06T05:17:27.970Z,43.98
2019-04-06T05:18:01.434Z,44.25
2019-04-06T05:18:34.937Z,42.15
2019-04-06T05:19:08.437Z,48.52
2019-04-06T05:19:41.929Z,48.08
2019-04-06T05:20:15.415Z,45.05
2019-04-06T05:20:49.112Z,45.35
2019-04-06T05:21:22.589Z,46.35
2019-04-06T05:21:56.164Z,43.15
2019-04-06T05:22:29.871Z,40.38
2019-04-06T05:23:03.354Z,39.80
2019-04-06T05:23:36.847Z,46.35
2019-04-06T05:24:11.236Z,42.67
2019-04-06T05:24:44.725Z,42.10
2019-04-06T05:25:18.217Z,42.98
2019-04-06T05:25:51.697Z,40.70
2019-04-06T05:26:25.197Z,41.92
2019-04-06T05:26:58.691Z,44.40
2019-04-06T05:27:32.161Z,46.55
2019-04-06T05:28:05.723Z,48.23
2019-04-06T05:28:39.205Z,49.50
2019-04-06T05:29:13.000Z,45.58
2019-04-06T05:29:46.483Z,41.40
2019-04-06T05:30:20.029Z,47.50
2019-04-06T05:30:53.528Z,40.50
2019-04-06T05:31:26.956Z,41.92
2019-04-06T05:32:00.501Z,41.05
2019-04-06T05:32:33.994Z,42.62
2019-04-06T05:33:07.473Z,42.75
2019-04-06T05:33:40.958Z,43.73
2019-04-06T05:34:14.434Z,42.17
2019-04-06T05:34:47.889Z,39.70
2019-04-06T05:35:21.374Z,39.65
2019-04-06T05:35:54.989Z,43.45
2019-04-06T05:36:28.724Z,44.75
2019-04-06T05:37:02.252Z,41.85
2019-04-06T05:37:35.786Z,38.63
2019-04-06T05:38:09.269Z,44.27
2019-04-06T05:38:42.746Z,44.23
2019-04-06T05:39:16.245Z,44.33
2019-04-06T05:39:49.931Z,41.18
2019-04-06T05:40:23.407Z,46.37
2019-04-06T05:40:56.917Z,40.73
2019-04-06T05:41:30.410Z,43.33
2019-04-06T05:42:04.293Z,40.08
2019-04-06T05:42:37.781Z,43.08
2019-04-06T05:43:11.323Z,41.10
2019-04-06T05:43:44.838Z,44.85
2019-04-06T05:44:18.467Z,42.80
2019-04-06T05:44:52.034Z,37.98
2019-04-06T05:45:25.533Z,42.58
2019-04-06T05:45:59.172Z,39.60
2019-04-06T05:46:33.022Z,44.03
2019-04-06T05:47:06.837Z,41.70
2019-04-06T05:47:40.330Z,42.40
2019-04-06T05:48:13.813Z,38.70
2019-04-06T05:48:47.371Z,40.25
2019-04-06T05:49:20.953Z,39.88
2019-04-06T05:49:55.366Z,41.80
2019-04-06T05:50:28.841Z,40.60
2019-04-06T05:51:02.246Z,42.10
2019-04-06T05:51:35.741Z,41.48
2019-04-06T05:52:09.330Z,43.50
2019-04-06T05:52:42.923Z,41.23
2019-04-06T05:53:16.406Z,41.00
2019-04-06T05:53:49.908Z,39.33
2019-04-06T05:54:23.408Z,41.58
2019-04-06T05:54:57.006Z,43.68
2019-04-06T05:55:31.016Z,37.88
2019-04-06T05:56:04.601Z,41.20
2019-04-06T05:56:38.296Z,43.05
2019-04-06T05:57:11.779Z,43.73
2019-04-06T05:57:45.270Z,42.30
2019-04-06T05:58:18.746Z,42.27
2019-04-06T05:58:52.231Z,42.65
2019-04-06T05:59:25.912Z,43.83
2019-04-06T05:59:59.412Z,43.25
2019-04-06T06:00:33.581Z,39.83
2019-04-06T06:01:10.236Z,43.15
2019-04-06T06:01:42.290Z,42.23
2019-04-06T06:02:15.870Z,38.42
2019-04-06T06:02:49.666Z,42.00
2019-04-06T06:03:23.532Z,60.55
2019-04-06T06:03:57.201Z,43.80
2019-04-06T06:04:30.617Z,41.58
2019-04-06T06:05:04.573Z,38.55
2019-04-06T06:05:40.281Z,45.90
2019-04-06T06:06:13.423Z,39.10
2019-04-06T06:06:47.143Z,40.12
2019-04-06T06:07:20.638Z,43.75
2019-04-06T06:07:54.110Z,42.93
2019-04-06T06:08:27.523Z,42.73
2019-04-06T06:09:01.002Z,37.35
2019-04-06T06:09:34.551Z,40.80
2019-04-06T06:10:08.388Z,43.65
2019-04-06T06:10:42.109Z,38.65
2019-04-06T06:11:15.623Z,44.27
2019-04-06T06:11:49.212Z,40.38
2019-04-06T06:12:22.945Z,44.27
2019-04-06T06:12:56.582Z,42.93
2019-04-06T06:13:30.806Z,40.67
2019-04-06T06:14:05.247Z,38.55
2019-04-06T06:14:39.503Z,45.40
2019-04-06T06:15:14.146Z,42.53
2019-04-06T06:15:48.601Z,43.23
2019-04-06T06:16:23.034Z,47.90
2019-04-06T06:16:57.650Z,40.48
2019-04-06T06:17:32.101Z,42.15
2019-04-06T06:18:06.602Z,41.50
2019-04-06T06:18:41.248Z,41.50
2019-04-06T06:19:15.563Z,38.90
2019-04-06T06:19:50.063Z,43.15
2019-04-06T06:20:24.124Z,41.80
2019-04-06T06:20:57.542Z,42.90
2019-04-06T06:21:31.090Z,39.90
2019-04-06T06:22:04.723Z,42.03
2019-04-06T06:22:38.269Z,41.88
2019-04-06T06:23:12.614Z,40.75
2019-04-06T06:23:47.784Z,40.00
2019-04-06T06:24:22.112Z,41.10
2019-04-06T06:24:55.969Z,38.13
2019-04-06T06:25:30.160Z,44.35
2019-04-06T06:26:04.342Z,45.55
2019-04-06T06:26:38.153Z,44.65
2019-04-06T06:27:12.343Z,44.05
2019-04-06T06:27:46.987Z,46.23
2019-04-06T06:28:20.653Z,40.45
2019-04-06T06:28:54.427Z,49.23
2019-04-06T06:29:28.128Z,41.42
2019-04-06T06:30:02.167Z,42.15
2019-04-06T06:30:36.029Z,39.92
2019-04-06T06:31:09.607Z,40.88
2019-04-06T06:31:43.090Z,43.38
2019-04-06T06:32:16.791Z,43.63
2019-04-06T06:32:50.410Z,44.03
2019-04-06T06:33:23.943Z,41.42
2019-04-06T06:33:57.757Z,45.25
2019-04-06T06:34:31.448Z,41.40
2019-04-06T06:35:05.599Z,41.75
2019-04-06T06:35:39.188Z,40.23
2019-04-06T06:36:13.164Z,43.83
2019-04-06T06:36:46.740Z,38.83
2019-04-06T06:37:20.614Z,44.58
2019-04-06T06:37:54.534Z,40.75
2019-04-06T06:38:28.293Z,39.40
2019-04-06T06:39:02.085Z,41.98
2019-04-06T06:39:35.569Z,42.93
2019-04-06T06:40:09.232Z,40.85
2019-04-06T06:40:43.185Z,40.67
2019-04-06T06:41:16.826Z,40.03
2019-04-06T06:41:50.568Z,44.65
2019-04-06T06:42:24.243Z,41.30
2019-04-06T06:42:58.270Z,39.33
2019-04-06T06:43:31.919Z,41.15
2019-04-06T06:44:05.633Z,39.88
2019-04-06T06:44:39.356Z,45.63
2019-04-06T06:45:13.046Z,36.28
2019-04-06T06:45:46.982Z,44.15
2019-04-06T06:46:20.665Z,41.58
2019-04-06T06:46:54.469Z,40.33
2019-04-06T06:47:28.536Z,40.63
2019-04-06T06:48:02.105Z,42.45
2019-04-06T06:48:35.690Z,44.42
2019-04-06T06:49:09.403Z,42.00
2019-04-06T06:49:43.224Z,41.70
2019-04-06T06:50:16.845Z,41.30
2019-04-06T06:50:50.470Z,40.25
2019-04-06T06:51:24.231Z,42.05
2019-04-06T06:51:58.165Z,42.30
2019-04-06T06:52:31.926Z,36.70
2019-04-06T06:53:05.840Z,37.98
2019-04-06T06:53:39.476Z,45.80
2019-04-06T06:54:13.360Z,39.13
2019-04-06T06:54:47.020Z,42.43
2019-04-06T06:55:20.841Z,35.40
2019-04-06T06:55:54.498Z,39.92
2019-04-06T06:56:28.801Z,42.40
2019-04-06T06:57:02.564Z,37.25
2019-04-06T06:57:36.243Z,44.50
2019-04-06T06:58:10.040Z,38.75
2019-04-06T06:58:43.857Z,43.15
2019-04-06T06:59:17.436Z,43.63
2019-04-06T06:59:51.282Z,45.70
2019-04-06T07:00:26.320Z,38.85
2019-04-06T07:01:03.217Z,36.60
2019-04-06T07:01:38.017Z,37.00
2019-04-06T07:02:12.585Z,41.77
2019-04-06T07:02:47.413Z,35.50
2019-04-06T07:03:22.073Z,44.38
2019-04-06T07:03:56.597Z,39.58
2019-04-06T07:04:31.301Z,41.95
2019-04-06T07:05:06.406Z,37.65
2019-04-06T07:05:41.420Z,40.23
2019-04-06T07:06:16.153Z,41.98
2019-04-06T07:06:50.590Z,41.70
2019-04-06T07:07:25.395Z,39.73
2019-04-06T07:08:00.161Z,39.75
2019-04-06T07:08:34.965Z,37.60
2019-04-06T07:09:10.198Z,37.05
2019-04-06T07:09:45.019Z,39.85
2019-04-06T07:10:19.583Z,43.13
2019-04-06T07:10:54.159Z,42.35
2019-04-06T07:11:28.891Z,39.85
2019-04-06T07:12:03.698Z,40.35
2019-04-06T07:12:38.478Z,37.05
2019-04-06T07:13:13.241Z,38.40
2019-04-06T07:13:48.017Z,40.50
2019-04-06T07:14:22.815Z,37.60
2019-04-06T07:14:57.621Z,38.53
2019-04-06T07:15:32.552Z,41.55
2019-04-06T07:16:07.505Z,36.80
2019-04-06T07:16:41.097Z,39.95
2019-04-06T07:17:15.767Z,40.90
2019-04-06T07:17:50.404Z,42.00
2019-04-06T07:18:25.182Z,37.75
2019-04-06T07:18:59.953Z,39.53
2019-04-06T07:19:34.665Z,34.67